sensor_id;sensor_type;location;lat;lon;timestamp;temperature;humidity
14210;DHT22;7188;56.070;12.698;2022-08-20T00:00:05;19.40;99.90
14210;DHT22;7188;56.070;12.698;2022-08-20T00:02:38;19.40;99.90
14210;DHT22;7188;56.070;12.698;2022-08-20T00:05:04;19.30;99.90
14210;DHT22;7188;56.070;12.698;2022-08-20T00:07:30;19.30;99.90
14210;DHT22;7188;56.070;12.698;2022-08-20T00:09:55;19.30;99.90
14210;DHT22;7188;56.070;12.698;2022-08-20T00:12:21;19.30;99.90
14210;DHT22;7188;56.070;12.698;2022-08-20T00:14:47;19.30;99.90
14210;DHT22;7188;56.070;12.698;2022-08-20T00:17:13;19.30;99.90
14210;DHT22;7188;56.070;12.698;2022-08-20T00:19:38;19.30;99.90
14210;DHT22;7188;56.070;12.698;2022-08-20T00:22:04;19.30;99.90
14210;DHT22;7188;56.070;12.698;2022-08-20T00:24:30;19.30;99.90
14210;DHT22;7188;56.070;12.698;2022-08-20T00:26:55;19.30;99.90
14210;DHT22;7188;56.070;12.698;2022-08-20T00:29:21;19.40;99.90
14210;DHT22;7188;56.070;12.698;2022-08-20T00:31:46;19.30;99.90
14210;DHT22;7188;56.070;12.698;2022-08-20T00:34:12;19.30;99.90
14210;DHT22;7188;56.070;12.698;2022-08-20T00:36:38;19.40;99.90
14210;DHT22;7188;56.070;12.698;2022-08-20T00:39:04;19.40;99.90
14210;DHT22;7188;56.070;12.698;2022-08-20T00:41:30;19.40;99.90
14210;DHT22;7188;56.070;12.698;2022-08-20T00:44:18;19.40;99.90
14210;DHT22;7188;56.070;12.698;2022-08-20T00:46:46;19.30;99.90
14210;DHT22;7188;56.070;12.698;2022-08-20T00:49:28;19.30;99.90
14210;DHT22;7188;56.070;12.698;2022-08-20T00:54:32;19.30;99.90
14210;DHT22;7188;56.070;12.698;2022-08-20T00:57:06;19.30;99.90
14210;DHT22;7188;56.070;12.698;2022-08-20T00:59:35;19.30;99.90
14210;DHT22;7188;56.070;12.698;2022-08-20T01:02:05;19.30;99.90
14210;DHT22;7188;56.070;12.698;2022-08-20T01:04:33;19.30;99.90
14210;DHT22;7188;56.070;12.698;2022-08-20T01:07:00;19.30;99.90
14210;DHT22;7188;56.070;12.698;2022-08-20T01:09:26;19.30;99.90
14210;DHT22;7188;56.070;12.698;2022-08-20T01:11:53;19.30;99.90
14210;DHT22;7188;56.070;12.698;2022-08-20T01:14:19;19.30;99.90
14210;DHT22;7188;56.070;12.698;2022-08-20T01:17:06;19.30;99.90
14210;DHT22;7188;56.070;12.698;2022-08-20T01:19:52;19.30;99.90
14210;DHT22;7188;56.070;12.698;2022-08-20T01:22:27;19.30;99.90
14210;DHT22;7188;56.070;12.698;2022-08-20T01:25:20;19.20;99.90
14210;DHT22;7188;56.070;12.698;2022-08-20T01:27:48;19.20;99.90
14210;DHT22;7188;56.070;12.698;2022-08-20T01:30:14;19.20;99.90
14210;DHT22;7188;56.070;12.698;2022-08-20T01:32:40;19.20;99.90
14210;DHT22;7188;56.070;12.698;2022-08-20T01:35:07;19.20;99.90
14210;DHT22;7188;56.070;12.698;2022-08-20T01:37:33;19.20;99.90
14210;DHT22;7188;56.070;12.698;2022-08-20T01:40:00;19.20;99.90
14210;DHT22;7188;56.070;12.698;2022-08-20T01:42:30;19.10;99.90
14210;DHT22;7188;56.070;12.698;2022-08-20T01:44:57;19.10;99.90
14210;DHT22;7188;56.070;12.698;2022-08-20T01:47:30;19.10;99.90
14210;DHT22;7188;56.070;12.698;2022-08-20T01:50:10;19.00;99.90
14210;DHT22;7188;56.070;12.698;2022-08-20T01:53:16;19.00;99.90
14210;DHT22;7188;56.070;12.698;2022-08-20T01:55:43;19.00;99.90
14210;DHT22;7188;56.070;12.698;2022-08-20T01:58:08;19.00;99.90
14210;DHT22;7188;56.070;12.698;2022-08-20T02:00:35;19.00;99.90
14210;DHT22;7188;56.070;12.698;2022-08-20T02:03:01;18.90;99.90
14210;DHT22;7188;56.070;12.698;2022-08-20T02:05:30;18.90;99.90
14210;DHT22;7188;56.070;12.698;2022-08-20T02:07:57;18.90;99.90
14210;DHT22;7188;56.070;12.698;2022-08-20T02:10:24;18.90;99.90
14210;DHT22;7188;56.070;12.698;2022-08-20T02:12:49;18.90;99.90
14210;DHT22;7188;56.070;12.698;2022-08-20T02:15:15;18.90;99.90
14210;DHT22;7188;56.070;12.698;2022-08-20T02:17:41;18.90;99.90
14210;DHT22;7188;56.070;12.698;2022-08-20T02:20:14;18.90;99.90
14210;DHT22;7188;56.070;12.698;2022-08-20T02:22:49;18.90;99.90
14210;DHT22;7188;56.070;12.698;2022-08-20T02:25:17;18.90;99.90
14210;DHT22;7188;56.070;12.698;2022-08-20T02:27:44;18.80;99.90
14210;DHT22;7188;56.070;12.698;2022-08-20T02:30:20;18.80;99.90
14210;DHT22;7188;56.070;12.698;2022-08-20T02:32:47;18.80;99.90
14210;DHT22;7188;56.070;12.698;2022-08-20T02:35:13;18.90;99.90
14210;DHT22;7188;56.070;12.698;2022-08-20T02:37:44;18.80;99.90
14210;DHT22;7188;56.070;12.698;2022-08-20T02:40:13;18.80;99.90
14210;DHT22;7188;56.070;12.698;2022-08-20T02:42:39;18.80;99.90
14210;DHT22;7188;56.070;12.698;2022-08-20T02:45:11;18.80;99.90
14210;DHT22;7188;56.070;12.698;2022-08-20T02:47:37;18.90;99.90
14210;DHT22;7188;56.070;12.698;2022-08-20T02:50:05;18.90;99.90
14210;DHT22;7188;56.070;12.698;2022-08-20T02:52:31;18.90;99.90
14210;DHT22;7188;56.070;12.698;2022-08-20T02:54:56;18.90;99.90
14210;DHT22;7188;56.070;12.698;2022-08-20T02:57:22;18.90;99.90
14210;DHT22;7188;56.070;12.698;2022-08-20T02:59:48;18.90;99.90
14210;DHT22;7188;56.070;12.698;2022-08-20T03:02:17;18.90;99.90
14210;DHT22;7188;56.070;12.698;2022-08-20T03:04:43;19.00;99.90
14210;DHT22;7188;56.070;12.698;2022-08-20T03:07:10;18.90;99.90
14210;DHT22;7188;56.070;12.698;2022-08-20T03:09:36;18.90;99.90
14210;DHT22;7188;56.070;12.698;2022-08-20T03:12:04;19.00;99.90
14210;DHT22;7188;56.070;12.698;2022-08-20T03:14:31;19.00;99.90
14210;DHT22;7188;56.070;12.698;2022-08-20T03:16:57;19.00;99.90
14210;DHT22;7188;56.070;12.698;2022-08-20T03:19:24;19.00;99.90
14210;DHT22;7188;56.070;12.698;2022-08-20T03:21:50;19.00;99.90
14210;DHT22;7188;56.070;12.698;2022-08-20T03:24:16;19.00;99.90
14210;DHT22;7188;56.070;12.698;2022-08-20T03:26:42;19.00;99.90
14210;DHT22;7188;56.070;12.698;2022-08-20T03:29:08;19.00;99.90
14210;DHT22;7188;56.070;12.698;2022-08-20T03:31:34;19.00;99.90
14210;DHT22;7188;56.070;12.698;2022-08-20T03:33:59;19.00;99.90
14210;DHT22;7188;56.070;12.698;2022-08-20T03:36:26;19.00;99.90
14210;DHT22;7188;56.070;12.698;2022-08-20T03:38:53;19.00;99.90
14210;DHT22;7188;56.070;12.698;2022-08-20T03:41:19;19.00;99.90
14210;DHT22;7188;56.070;12.698;2022-08-20T03:43:45;19.00;99.90
14210;DHT22;7188;56.070;12.698;2022-08-20T03:46:11;19.00;99.90
14210;DHT22;7188;56.070;12.698;2022-08-20T03:48:37;19.00;99.90
14210;DHT22;7188;56.070;12.698;2022-08-20T03:51:03;19.00;99.90
14210;DHT22;7188;56.070;12.698;2022-08-20T03:53:29;19.00;99.90
14210;DHT22;7188;56.070;12.698;2022-08-20T03:55:57;19.00;99.90
14210;DHT22;7188;56.070;12.698;2022-08-20T03:58:28;19.00;99.90
14210;DHT22;7188;56.070;12.698;2022-08-20T04:00:54;19.00;99.90
14210;DHT22;7188;56.070;12.698;2022-08-20T04:03:20;19.00;99.90
14210;DHT22;7188;56.070;12.698;2022-08-20T04:05:47;19.00;99.90
14210;DHT22;7188;56.070;12.698;2022-08-20T04:08:24;19.00;99.90
14210;DHT22;7188;56.070;12.698;2022-08-20T04:10:51;19.00;99.90
14210;DHT22;7188;56.070;12.698;2022-08-20T04:13:19;19.00;99.90
14210;DHT22;7188;56.070;12.698;2022-08-20T04:15:45;19.00;99.90
14210;DHT22;7188;56.070;12.698;2022-08-20T04:18:12;19.00;99.90
14210;DHT22;7188;56.070;12.698;2022-08-20T04:20:40;19.00;99.90
14210;DHT22;7188;56.070;12.698;2022-08-20T04:23:07;19.00;99.90
14210;DHT22;7188;56.070;12.698;2022-08-20T04:25:34;19.00;99.90
14210;DHT22;7188;56.070;12.698;2022-08-20T04:28:04;19.00;99.90
14210;DHT22;7188;56.070;12.698;2022-08-20T04:30:30;19.00;99.90
14210;DHT22;7188;56.070;12.698;2022-08-20T04:32:58;19.00;99.90
14210;DHT22;7188;56.070;12.698;2022-08-20T04:35:25;19.00;99.90
14210;DHT22;7188;56.070;12.698;2022-08-20T04:38:03;19.00;99.90
14210;DHT22;7188;56.070;12.698;2022-08-20T04:40:29;19.10;99.90
14210;DHT22;7188;56.070;12.698;2022-08-20T04:43:13;19.20;99.90
14210;DHT22;7188;56.070;12.698;2022-08-20T04:45:39;19.10;99.90
14210;DHT22;7188;56.070;12.698;2022-08-20T04:48:05;19.20;99.90
14210;DHT22;7188;56.070;12.698;2022-08-20T04:50:36;19.20;99.90
14210;DHT22;7188;56.070;12.698;2022-08-20T04:53:04;19.20;99.90
14210;DHT22;7188;56.070;12.698;2022-08-20T04:55:31;19.20;99.90
14210;DHT22;7188;56.070;12.698;2022-08-20T04:58:21;19.20;99.90
14210;DHT22;7188;56.070;12.698;2022-08-20T05:00:58;19.20;99.90
14210;DHT22;7188;56.070;12.698;2022-08-20T05:03:25;19.20;99.90
14210;DHT22;7188;56.070;12.698;2022-08-20T05:05:51;19.20;99.90
14210;DHT22;7188;56.070;12.698;2022-08-20T05:08:19;19.30;99.90
14210;DHT22;7188;56.070;12.698;2022-08-20T05:10:45;19.30;99.90
14210;DHT22;7188;56.070;12.698;2022-08-20T05:13:11;19.30;99.90
14210;DHT22;7188;56.070;12.698;2022-08-20T05:15:37;19.40;99.90
14210;DHT22;7188;56.070;12.698;2022-08-20T05:18:04;19.40;99.90
14210;DHT22;7188;56.070;12.698;2022-08-20T05:20:34;19.40;99.90
14210;DHT22;7188;56.070;12.698;2022-08-20T05:23:06;19.50;99.90
14210;DHT22;7188;56.070;12.698;2022-08-20T05:25:32;19.50;99.90
14210;DHT22;7188;56.070;12.698;2022-08-20T05:28:04;19.50;99.90
14210;DHT22;7188;56.070;12.698;2022-08-20T05:30:31;19.60;99.90
14210;DHT22;7188;56.070;12.698;2022-08-20T05:33:01;19.60;99.90
14210;DHT22;7188;56.070;12.698;2022-08-20T05:35:29;19.60;99.90
14210;DHT22;7188;56.070;12.698;2022-08-20T05:37:55;19.60;99.90
14210;DHT22;7188;56.070;12.698;2022-08-20T05:40:22;19.60;99.90
14210;DHT22;7188;56.070;12.698;2022-08-20T05:42:49;19.60;99.90
14210;DHT22;7188;56.070;12.698;2022-08-20T05:45:16;19.60;99.90
14210;DHT22;7188;56.070;12.698;2022-08-20T05:47:42;19.70;99.90
14210;DHT22;7188;56.070;12.698;2022-08-20T05:50:11;19.70;99.90
14210;DHT22;7188;56.070;12.698;2022-08-20T05:52:38;19.80;99.90
14210;DHT22;7188;56.070;12.698;2022-08-20T05:55:05;19.80;99.90
14210;DHT22;7188;56.070;12.698;2022-08-20T05:57:32;19.90;99.90
14210;DHT22;7188;56.070;12.698;2022-08-20T05:59:59;19.90;99.90
14210;DHT22;7188;56.070;12.698;2022-08-20T06:02:33;19.90;99.90
14210;DHT22;7188;56.070;12.698;2022-08-20T06:05:17;20.00;99.90
14210;DHT22;7188;56.070;12.698;2022-08-20T06:07:44;20.00;99.90
14210;DHT22;7188;56.070;12.698;2022-08-20T06:10:10;20.10;99.90
14210;DHT22;7188;56.070;12.698;2022-08-20T06:12:37;20.20;99.90
14210;DHT22;7188;56.070;12.698;2022-08-20T06:15:04;20.20;99.90
14210;DHT22;7188;56.070;12.698;2022-08-20T06:17:31;20.30;99.90
14210;DHT22;7188;56.070;12.698;2022-08-20T06:20:05;20.40;99.90
14210;DHT22;7188;56.070;12.698;2022-08-20T06:22:32;20.40;99.90
14210;DHT22;7188;56.070;12.698;2022-08-20T06:24:58;20.50;99.90
14210;DHT22;7188;56.070;12.698;2022-08-20T06:27:24;20.60;99.90
14210;DHT22;7188;56.070;12.698;2022-08-20T06:29:51;20.60;99.90
14210;DHT22;7188;56.070;12.698;2022-08-20T06:32:18;20.60;99.90
14210;DHT22;7188;56.070;12.698;2022-08-20T06:34:44;20.60;99.90
14210;DHT22;7188;56.070;12.698;2022-08-20T06:37:19;20.60;99.90
14210;DHT22;7188;56.070;12.698;2022-08-20T06:39:45;20.60;99.90
14210;DHT22;7188;56.070;12.698;2022-08-20T06:42:11;20.50;99.90
14210;DHT22;7188;56.070;12.698;2022-08-20T06:44:36;20.50;99.90
14210;DHT22;7188;56.070;12.698;2022-08-20T06:47:05;20.60;99.90
14210;DHT22;7188;56.070;12.698;2022-08-20T06:49:34;20.60;99.90
14210;DHT22;7188;56.070;12.698;2022-08-20T06:52:02;20.60;99.90
14210;DHT22;7188;56.070;12.698;2022-08-20T06:54:28;20.70;99.90
14210;DHT22;7188;56.070;12.698;2022-08-20T06:56:54;20.70;99.90
14210;DHT22;7188;56.070;12.698;2022-08-20T06:59:20;20.70;99.90
14210;DHT22;7188;56.070;12.698;2022-08-20T07:01:46;20.60;99.90
14210;DHT22;7188;56.070;12.698;2022-08-20T07:04:14;20.60;99.90
14210;DHT22;7188;56.070;12.698;2022-08-20T07:06:41;20.60;99.90
14210;DHT22;7188;56.070;12.698;2022-08-20T07:09:10;20.50;99.90
14210;DHT22;7188;56.070;12.698;2022-08-20T07:11:35;20.50;99.90
14210;DHT22;7188;56.070;12.698;2022-08-20T07:14:01;20.50;99.90
14210;DHT22;7188;56.070;12.698;2022-08-20T07:16:30;20.50;99.90
14210;DHT22;7188;56.070;12.698;2022-08-20T07:18:56;20.50;99.90
14210;DHT22;7188;56.070;12.698;2022-08-20T07:21:22;20.50;99.90
14210;DHT22;7188;56.070;12.698;2022-08-20T07:23:48;20.40;99.90
14210;DHT22;7188;56.070;12.698;2022-08-20T07:26:14;20.40;99.90
14210;DHT22;7188;56.070;12.698;2022-08-20T07:28:40;20.30;99.90
14210;DHT22;7188;56.070;12.698;2022-08-20T07:31:06;20.40;99.90
14210;DHT22;7188;56.070;12.698;2022-08-20T07:33:50;20.40;99.90
14210;DHT22;7188;56.070;12.698;2022-08-20T07:36:15;20.40;99.90
14210;DHT22;7188;56.070;12.698;2022-08-20T07:38:42;20.40;99.90
14210;DHT22;7188;56.070;12.698;2022-08-20T07:41:30;20.40;99.90
14210;DHT22;7188;56.070;12.698;2022-08-20T07:43:55;20.40;99.90
14210;DHT22;7188;56.070;12.698;2022-08-20T07:46:21;20.30;99.90
14210;DHT22;7188;56.070;12.698;2022-08-20T07:49:06;20.30;99.90
14210;DHT22;7188;56.070;12.698;2022-08-20T07:51:34;20.30;99.90
14210;DHT22;7188;56.070;12.698;2022-08-20T07:54:01;20.30;99.90
14210;DHT22;7188;56.070;12.698;2022-08-20T07:56:27;20.30;99.90
14210;DHT22;7188;56.070;12.698;2022-08-20T07:58:54;20.30;99.90
14210;DHT22;7188;56.070;12.698;2022-08-20T08:01:26;20.40;99.90
14210;DHT22;7188;56.070;12.698;2022-08-20T08:03:54;20.40;99.90
14210;DHT22;7188;56.070;12.698;2022-08-20T08:06:22;20.50;99.90
14210;DHT22;7188;56.070;12.698;2022-08-20T08:08:49;20.50;99.90
14210;DHT22;7188;56.070;12.698;2022-08-20T08:11:15;20.70;99.90
14210;DHT22;7188;56.070;12.698;2022-08-20T08:13:43;20.70;82.90
14210;DHT22;7188;56.070;12.698;2022-08-20T08:16:09;20.70;95.10
14210;DHT22;7188;56.070;12.698;2022-08-20T08:18:42;20.80;99.90
14210;DHT22;7188;56.070;12.698;2022-08-20T08:21:10;20.80;99.90
14210;DHT22;7188;56.070;12.698;2022-08-20T08:23:39;20.90;99.90
14210;DHT22;7188;56.070;12.698;2022-08-20T08:26:36;21.00;99.90
14210;DHT22;7188;56.070;12.698;2022-08-20T08:29:02;21.00;99.90
14210;DHT22;7188;56.070;12.698;2022-08-20T08:31:32;21.00;99.90
14210;DHT22;7188;56.070;12.698;2022-08-20T08:33:58;21.10;99.90
14210;DHT22;7188;56.070;12.698;2022-08-20T08:36:23;21.10;54.80
14210;DHT22;7188;56.070;12.698;2022-08-20T08:38:51;21.10;52.50
14210;DHT22;7188;56.070;12.698;2022-08-20T08:41:33;21.10;85.40
14210;DHT22;7188;56.070;12.698;2022-08-20T08:44:10;21.10;79.80
14210;DHT22;7188;56.070;12.698;2022-08-20T08:46:44;21.10;26.90
14210;DHT22;7188;56.070;12.698;2022-08-20T08:49:16;21.00;69.60
14210;DHT22;7188;56.070;12.698;2022-08-20T08:51:50;20.90;47.10
14210;DHT22;7188;56.070;12.698;2022-08-20T08:54:23;20.80;48.20
14210;DHT22;7188;56.070;12.698;2022-08-20T08:56:50;20.80;68.60
14210;DHT22;7188;56.070;12.698;2022-08-20T08:59:18;20.80;3.60
14210;DHT22;7188;56.070;12.698;2022-08-20T09:01:56;20.80;1.00
14210;DHT22;7188;56.070;12.698;2022-08-20T09:04:33;20.90;1.00
14210;DHT22;7188;56.070;12.698;2022-08-20T09:07:01;20.90;1.00
14210;DHT22;7188;56.070;12.698;2022-08-20T09:09:30;20.90;1.00
14210;DHT22;7188;56.070;12.698;2022-08-20T09:12:08;21.00;1.00
14210;DHT22;7188;56.070;12.698;2022-08-20T09:14:34;21.10;1.00
14210;DHT22;7188;56.070;12.698;2022-08-20T09:17:00;21.30;1.00
14210;DHT22;7188;56.070;12.698;2022-08-20T09:19:26;21.40;1.00
14210;DHT22;7188;56.070;12.698;2022-08-20T09:21:51;21.40;1.00
14210;DHT22;7188;56.070;12.698;2022-08-20T09:24:29;21.40;1.00
14210;DHT22;7188;56.070;12.698;2022-08-20T09:26:55;21.30;1.00
14210;DHT22;7188;56.070;12.698;2022-08-20T09:29:20;21.50;99.90
14210;DHT22;7188;56.070;12.698;2022-08-20T09:31:46;21.60;1.00
14210;DHT22;7188;56.070;12.698;2022-08-20T09:34:12;21.70;1.00
14210;DHT22;7188;56.070;12.698;2022-08-20T09:36:37;21.90;1.00
14210;DHT22;7188;56.070;12.698;2022-08-20T09:39:03;22.00;1.00
14210;DHT22;7188;56.070;12.698;2022-08-20T09:41:29;22.10;1.00
14210;DHT22;7188;56.070;12.698;2022-08-20T09:43:55;22.10;1.00
14210;DHT22;7188;56.070;12.698;2022-08-20T09:46:21;22.10;99.90
14210;DHT22;7188;56.070;12.698;2022-08-20T09:48:46;22.10;99.90
14210;DHT22;7188;56.070;12.698;2022-08-20T09:51:12;22.20;1.00
14210;DHT22;7188;56.070;12.698;2022-08-20T09:53:38;22.20;74.10
14210;DHT22;7188;56.070;12.698;2022-08-20T09:56:03;22.00;99.90
14210;DHT22;7188;56.070;12.698;2022-08-20T10:01:10;21.90;99.90
14210;DHT22;7188;56.070;12.698;2022-08-20T10:03:39;21.80;99.90
14210;DHT22;7188;56.070;12.698;2022-08-20T10:06:05;21.80;99.90
14210;DHT22;7188;56.070;12.698;2022-08-20T10:08:31;21.80;99.90
14210;DHT22;7188;56.070;12.698;2022-08-20T10:10:56;21.80;1.00
14210;DHT22;7188;56.070;12.698;2022-08-20T10:13:22;21.80;1.00
14210;DHT22;7188;56.070;12.698;2022-08-20T10:15:48;21.90;1.00
14210;DHT22;7188;56.070;12.698;2022-08-20T10:18:13;21.90;99.90
14210;DHT22;7188;56.070;12.698;2022-08-20T10:20:39;22.10;1.00
14210;DHT22;7188;56.070;12.698;2022-08-20T10:23:05;21.90;1.00
14210;DHT22;7188;56.070;12.698;2022-08-20T10:25:31;21.70;1.00
14210;DHT22;7188;56.070;12.698;2022-08-20T10:27:59;21.60;99.90
14210;DHT22;7188;56.070;12.698;2022-08-20T10:30:25;21.60;10.70
14210;DHT22;7188;56.070;12.698;2022-08-20T10:32:51;21.50;99.90
14210;DHT22;7188;56.070;12.698;2022-08-20T10:35:17;21.60;99.90
14210;DHT22;7188;56.070;12.698;2022-08-20T10:37:43;21.80;99.90
14210;DHT22;7188;56.070;12.698;2022-08-20T10:40:10;22.10;99.90
14210;DHT22;7188;56.070;12.698;2022-08-20T10:42:36;22.30;99.90
14210;DHT22;7188;56.070;12.698;2022-08-20T10:45:02;22.40;39.90
14210;DHT22;7188;56.070;12.698;2022-08-20T10:47:29;22.20;1.00
14210;DHT22;7188;56.070;12.698;2022-08-20T10:50:02;22.20;99.90
14210;DHT22;7188;56.070;12.698;2022-08-20T10:52:28;22.10;99.90
14210;DHT22;7188;56.070;12.698;2022-08-20T10:54:54;22.00;99.90
14210;DHT22;7188;56.070;12.698;2022-08-20T10:57:25;22.00;99.90
14210;DHT22;7188;56.070;12.698;2022-08-20T10:59:53;22.20;15.10
14210;DHT22;7188;56.070;12.698;2022-08-20T11:02:20;22.30;1.00
14210;DHT22;7188;56.070;12.698;2022-08-20T11:04:46;22.40;1.00
14210;DHT22;7188;56.070;12.698;2022-08-20T11:07:19;22.50;1.00
14210;DHT22;7188;56.070;12.698;2022-08-20T11:09:47;22.50;1.00
14210;DHT22;7188;56.070;12.698;2022-08-20T11:12:14;22.60;99.90
14210;DHT22;7188;56.070;12.698;2022-08-20T11:14:40;22.70;1.00
14210;DHT22;7188;56.070;12.698;2022-08-20T11:17:06;22.60;99.90
14210;DHT22;7188;56.070;12.698;2022-08-20T11:19:32;22.60;80.30
14210;DHT22;7188;56.070;12.698;2022-08-20T11:21:57;22.50;1.00
14210;DHT22;7188;56.070;12.698;2022-08-20T11:24:23;22.40;1.00
14210;DHT22;7188;56.070;12.698;2022-08-20T11:26:50;22.30;1.00
14210;DHT22;7188;56.070;12.698;2022-08-20T11:29:18;22.20;1.00
14210;DHT22;7188;56.070;12.698;2022-08-20T11:31:45;22.30;1.00
14210;DHT22;7188;56.070;12.698;2022-08-20T11:34:10;22.50;1.00
14210;DHT22;7188;56.070;12.698;2022-08-20T11:36:36;22.60;1.00
14210;DHT22;7188;56.070;12.698;2022-08-20T11:39:02;22.60;1.00
14210;DHT22;7188;56.070;12.698;2022-08-20T11:41:28;22.60;1.00
14210;DHT22;7188;56.070;12.698;2022-08-20T11:43:54;22.60;99.90
14210;DHT22;7188;56.070;12.698;2022-08-20T11:46:20;22.40;99.90
14210;DHT22;7188;56.070;12.698;2022-08-20T11:48:46;22.20;1.00
14210;DHT22;7188;56.070;12.698;2022-08-20T11:51:11;22.30;99.90
14210;DHT22;7188;56.070;12.698;2022-08-20T11:53:37;22.30;99.90
14210;DHT22;7188;56.070;12.698;2022-08-20T11:56:03;22.40;99.90
14210;DHT22;7188;56.070;12.698;2022-08-20T11:58:28;22.40;99.90
14210;DHT22;7188;56.070;12.698;2022-08-20T12:00:54;22.50;99.90
14210;DHT22;7188;56.070;12.698;2022-08-20T12:03:20;22.50;99.90
14210;DHT22;7188;56.070;12.698;2022-08-20T12:05:46;22.60;1.00
14210;DHT22;7188;56.070;12.698;2022-08-20T12:08:14;22.70;1.00
14210;DHT22;7188;56.070;12.698;2022-08-20T12:10:40;22.60;1.00
14210;DHT22;7188;56.070;12.698;2022-08-20T12:13:06;22.50;1.00
14210;DHT22;7188;56.070;12.698;2022-08-20T12:15:33;22.30;1.00
14210;DHT22;7188;56.070;12.698;2022-08-20T12:17:59;22.30;1.00
14210;DHT22;7188;56.070;12.698;2022-08-20T12:20:26;22.40;1.00
14210;DHT22;7188;56.070;12.698;2022-08-20T12:22:52;22.30;1.00
14210;DHT22;7188;56.070;12.698;2022-08-20T12:25:18;22.30;1.00
14210;DHT22;7188;56.070;12.698;2022-08-20T12:27:45;22.30;1.00
14210;DHT22;7188;56.070;12.698;2022-08-20T12:30:14;22.30;1.00
14210;DHT22;7188;56.070;12.698;2022-08-20T12:32:40;22.30;1.00
14210;DHT22;7188;56.070;12.698;2022-08-20T12:35:08;22.50;1.00
14210;DHT22;7188;56.070;12.698;2022-08-20T12:37:35;22.60;1.00
14210;DHT22;7188;56.070;12.698;2022-08-20T12:40:06;22.50;1.00
14210;DHT22;7188;56.070;12.698;2022-08-20T12:42:32;22.60;1.00
14210;DHT22;7188;56.070;12.698;2022-08-20T12:44:58;22.60;1.00
14210;DHT22;7188;56.070;12.698;2022-08-20T12:47:30;22.60;1.00
14210;DHT22;7188;56.070;12.698;2022-08-20T12:50:02;22.70;1.00
14210;DHT22;7188;56.070;12.698;2022-08-20T12:52:29;22.70;1.00
14210;DHT22;7188;56.070;12.698;2022-08-20T12:54:56;22.70;99.90
14210;DHT22;7188;56.070;12.698;2022-08-20T12:57:36;22.70;1.00
14210;DHT22;7188;56.070;12.698;2022-08-20T13:00:11;22.80;99.90
14210;DHT22;7188;56.070;12.698;2022-08-20T13:02:37;22.90;99.90
14210;DHT22;7188;56.070;12.698;2022-08-20T13:05:06;22.90;99.90
14210;DHT22;7188;56.070;12.698;2022-08-20T13:07:33;22.90;99.90
14210;DHT22;7188;56.070;12.698;2022-08-20T13:09:59;22.80;99.90
14210;DHT22;7188;56.070;12.698;2022-08-20T13:12:25;22.90;99.90
14210;DHT22;7188;56.070;12.698;2022-08-20T13:14:52;22.80;99.90
14210;DHT22;7188;56.070;12.698;2022-08-20T13:17:18;22.70;99.90
14210;DHT22;7188;56.070;12.698;2022-08-20T13:19:44;22.70;99.90
14210;DHT22;7188;56.070;12.698;2022-08-20T13:22:12;22.60;99.90
14210;DHT22;7188;56.070;12.698;2022-08-20T13:24:38;22.80;99.90
14210;DHT22;7188;56.070;12.698;2022-08-20T13:27:06;23.10;99.90
14210;DHT22;7188;56.070;12.698;2022-08-20T13:29:32;23.20;99.90
14210;DHT22;7188;56.070;12.698;2022-08-20T13:31:58;23.20;99.90
14210;DHT22;7188;56.070;12.698;2022-08-20T13:34:24;23.20;99.90
14210;DHT22;7188;56.070;12.698;2022-08-20T13:36:49;23.10;99.90
14210;DHT22;7188;56.070;12.698;2022-08-20T13:39:15;23.10;99.90
14210;DHT22;7188;56.070;12.698;2022-08-20T13:41:41;23.00;99.90
14210;DHT22;7188;56.070;12.698;2022-08-20T13:44:10;22.80;99.90
14210;DHT22;7188;56.070;12.698;2022-08-20T13:46:36;22.70;99.90
14210;DHT22;7188;56.070;12.698;2022-08-20T13:49:02;22.60;99.90
14210;DHT22;7188;56.070;12.698;2022-08-20T13:51:27;22.50;99.90
14210;DHT22;7188;56.070;12.698;2022-08-20T13:53:53;22.70;99.90
14210;DHT22;7188;56.070;12.698;2022-08-20T13:56:19;22.70;99.90
14210;DHT22;7188;56.070;12.698;2022-08-20T13:58:44;22.70;99.90
14210;DHT22;7188;56.070;12.698;2022-08-20T14:01:11;22.70;99.90
14210;DHT22;7188;56.070;12.698;2022-08-20T14:03:36;22.60;99.90
14210;DHT22;7188;56.070;12.698;2022-08-20T14:06:02;22.70;99.90
14210;DHT22;7188;56.070;12.698;2022-08-20T14:08:28;22.50;99.90
14210;DHT22;7188;56.070;12.698;2022-08-20T14:10:54;22.40;99.90
14210;DHT22;7188;56.070;12.698;2022-08-20T14:13:22;22.40;99.90
14210;DHT22;7188;56.070;12.698;2022-08-20T14:15:49;22.50;99.90
14210;DHT22;7188;56.070;12.698;2022-08-20T14:18:15;22.60;99.90
14210;DHT22;7188;56.070;12.698;2022-08-20T14:20:42;22.50;99.90
14210;DHT22;7188;56.070;12.698;2022-08-20T14:23:08;22.50;99.90
14210;DHT22;7188;56.070;12.698;2022-08-20T14:25:34;22.50;99.90
14210;DHT22;7188;56.070;12.698;2022-08-20T14:28:16;22.40;99.90
14210;DHT22;7188;56.070;12.698;2022-08-20T14:30:42;22.40;1.00
14210;DHT22;7188;56.070;12.698;2022-08-20T14:33:08;22.30;1.00
14210;DHT22;7188;56.070;12.698;2022-08-20T14:35:34;22.40;1.00
14210;DHT22;7188;56.070;12.698;2022-08-20T14:38:00;22.30;99.90
14210;DHT22;7188;56.070;12.698;2022-08-20T14:40:26;22.30;1.00
14210;DHT22;7188;56.070;12.698;2022-08-20T14:42:53;22.30;1.00
14210;DHT22;7188;56.070;12.698;2022-08-20T14:45:20;22.30;1.00
14210;DHT22;7188;56.070;12.698;2022-08-20T14:47:52;22.20;99.90
14210;DHT22;7188;56.070;12.698;2022-08-20T14:50:22;22.00;99.90
14210;DHT22;7188;56.070;12.698;2022-08-20T14:52:48;22.00;99.90
14210;DHT22;7188;56.070;12.698;2022-08-20T14:55:16;21.90;99.90
14210;DHT22;7188;56.070;12.698;2022-08-20T14:57:43;21.80;99.90
14210;DHT22;7188;56.070;12.698;2022-08-20T15:00:11;21.70;99.90
14210;DHT22;7188;56.070;12.698;2022-08-20T15:02:38;21.80;99.90
14210;DHT22;7188;56.070;12.698;2022-08-20T15:05:05;21.90;99.90
14210;DHT22;7188;56.070;12.698;2022-08-20T15:07:34;22.00;1.00
14210;DHT22;7188;56.070;12.698;2022-08-20T15:10:02;22.10;1.00
14210;DHT22;7188;56.070;12.698;2022-08-20T15:12:30;22.10;99.90
14210;DHT22;7188;56.070;12.698;2022-08-20T15:14:56;22.10;1.00
14210;DHT22;7188;56.070;12.698;2022-08-20T15:17:28;22.10;1.00
14210;DHT22;7188;56.070;12.698;2022-08-20T15:19:54;22.20;1.00
14210;DHT22;7188;56.070;12.698;2022-08-20T15:22:21;22.20;1.00
14210;DHT22;7188;56.070;12.698;2022-08-20T15:24:48;22.00;1.00
14210;DHT22;7188;56.070;12.698;2022-08-20T15:27:14;22.00;1.00
14210;DHT22;7188;56.070;12.698;2022-08-20T15:29:40;22.10;1.00
14210;DHT22;7188;56.070;12.698;2022-08-20T15:32:06;22.10;1.00
14210;DHT22;7188;56.070;12.698;2022-08-20T15:34:34;21.90;1.00
14210;DHT22;7188;56.070;12.698;2022-08-20T15:37:30;21.90;1.00
14210;DHT22;7188;56.070;12.698;2022-08-20T15:39:56;21.80;1.00
14210;DHT22;7188;56.070;12.698;2022-08-20T15:42:22;21.80;1.00
14210;DHT22;7188;56.070;12.698;2022-08-20T15:44:49;21.70;1.00